createdAt,value
2019-05-09T00:01:46.978Z,97505.02
2019-05-09T00:04:09.895Z,97499.36
2019-05-09T00:06:33.811Z,97501.23
2019-05-09T00:08:54.938Z,97499.09
2019-05-09T00:11:16.805Z,97507.99
2019-05-09T00:13:38.878Z,97502.86
2019-05-09T00:16:00.806Z,97505.29
2019-05-09T00:18:23.381Z,97506.64
2019-05-09T00:20:45.163Z,97512.32
2019-05-09T00:23:06.830Z,97511.49
2019-05-09T00:25:28.338Z,97515.82
2019-05-09T00:27:50.583Z,97514.19
2019-05-09T00:30:13.861Z,97514.44
2019-05-09T00:32:34.380Z,97513.61
2019-05-09T00:34:56.103Z,97518.45
2019-05-09T00:37:18.034Z,97514.68
2019-05-09T00:39:40.489Z,97517.10
2019-05-09T00:42:04.419Z,97523.30
2019-05-09T00:44:26.614Z,97518.17
2019-05-09T00:46:47.935Z,97526.55
2019-05-09T00:49:10.256Z,97531.13
2019-05-09T00:51:33.683Z,97521.67
2019-05-09T00:53:54.744Z,97520.05
2019-05-09T00:56:16.470Z,97525.16
2019-05-09T00:58:38.919Z,97527.59
2019-05-09T01:01:00.944Z,97530.56
2019-05-09T01:03:23.435Z,97524.88
2019-05-09T01:05:47.557Z,97517.85
2019-05-09T01:08:09.348Z,97521.91
2019-05-09T01:10:31.413Z,97520.83
2019-05-09T01:12:54.337Z,97520.04
2019-05-09T01:15:15.518Z,97517.62
2019-05-09T01:17:37.109Z,97507.89
2019-05-09T01:19:58.700Z,97514.40
2019-05-09T01:22:20.829Z,97509.55
2019-05-09T01:24:44.282Z,97516.55
2019-05-09T01:27:06.205Z,97510.34
2019-05-09T01:29:27.890Z,97512.26
2019-05-09T01:31:50.854Z,97514.16
2019-05-09T01:34:13.381Z,97510.63
2019-05-09T01:36:34.982Z,97510.91
2019-05-09T01:38:56.573Z,97516.31
2019-05-09T01:41:28.010Z,97509.28
2019-05-09T01:43:41.364Z,97513.61
2019-05-09T01:46:03.920Z,97514.16
2019-05-09T01:48:26.317Z,97505.78
2019-05-09T01:50:48.662Z,97505.78
2019-05-09T01:53:10.068Z,97508.20
2019-05-09T01:55:31.665Z,97516.31
2019-05-09T01:57:53.852Z,97514.95
2019-05-09T02:00:15.494Z,97510.91
2019-05-09T02:02:37.066Z,97514.95
2019-05-09T02:04:58.422Z,97510.34
2019-05-09T02:07:19.962Z,97513.84
2019-05-09T02:09:43.457Z,97509.80
2019-05-09T02:12:05.618Z,97503.31
2019-05-09T02:14:26.696Z,97504.91
2019-05-09T02:16:48.474Z,97503.28
2019-05-09T02:19:10.201Z,97503.28
2019-05-09T02:21:34.356Z,97496.80
2019-05-09T02:23:55.231Z,97501.41
2019-05-09T02:26:17.078Z,97485.99
2019-05-09T02:28:38.712Z,97484.09
2019-05-09T02:31:00.467Z,97489.48
2019-05-09T02:33:25.017Z,97478.96
2019-05-09T02:35:52.887Z,97486.78
2019-05-09T02:38:09.987Z,97475.42
2019-05-09T02:40:31.869Z,97471.66
2019-05-09T02:42:53.425Z,97472.72
2019-05-09T02:45:15.362Z,97467.84
2019-05-09T02:47:38.516Z,97470.02
2019-05-09T02:49:59.219Z,97474.35
2019-05-09T02:52:20.962Z,97472.45
2019-05-09T02:54:42.895Z,97470.30
2019-05-09T02:57:04.772Z,97466.80
2019-05-09T02:59:29.717Z,97463.58
2019-05-09T03:01:50.322Z,97471.69
2019-05-09T03:04:12.215Z,97473.32
2019-05-09T03:06:34.901Z,97475.77
2019-05-09T03:08:59.376Z,97471.45
2019-05-09T03:11:19.284Z,97474.70
2019-05-09T03:13:40.730Z,97473.35
2019-05-09T03:16:02.563Z,97474.15
2019-05-09T03:18:23.959Z,97475.77
2019-05-09T03:20:45.568Z,97473.91
2019-05-09T03:23:09.150Z,97473.91
2019-05-09T03:25:30.861Z,97468.74
2019-05-09T03:27:52.799Z,97471.45
2019-05-09T03:30:14.537Z,97472.80
2019-05-09T03:32:38.707Z,97462.27
2019-05-09T03:34:59.874Z,97468.19
2019-05-09T03:37:21.531Z,97454.69
2019-05-09T03:39:42.840Z,97455.76
2019-05-09T03:42:04.809Z,97460.36
2019-05-09T03:44:28.289Z,97458.46
2019-05-09T03:46:50.095Z,97452.26
2019-05-09T03:49:11.843Z,97451.98
2019-05-09T03:51:33.679Z,97450.63
2019-05-09T03:53:57.599Z,97453.85
2019-05-09T03:56:19.203Z,97448.45
2019-05-09T03:58:41.634Z,97443.32
2019-05-09T04:01:03.263Z,97445.47
2019-05-09T04:03:24.727Z,97443.84
2019-05-09T04:05:56.642Z,97447.09
2019-05-09T04:08:10.331Z,97455.20
2019-05-09T04:10:32.430Z,97454.13
2019-05-09T04:12:59.004Z,97458.18
2019-05-09T04:15:19.067Z,97453.05
2019-05-09T04:17:40.167Z,97452.50
2019-05-09T04:20:01.903Z,97451.95
2019-05-09T04:22:23.600Z,97453.58
2019-05-09T04:24:47.278Z,97451.15
2019-05-09T04:27:07.990Z,97458.98
2019-05-09T04:29:29.138Z,97455.20
2019-05-09T04:31:51.252Z,97454.41
2019-05-09T04:34:12.807Z,97455.76
2019-05-09T04:36:34.807Z,97457.91
2019-05-09T04:38:57.773Z,97458.73
2019-05-09T04:41:24.025Z,97461.44
2019-05-09T04:43:42.096Z,97465.21
2019-05-09T04:46:05.067Z,97467.39
2019-05-09T04:48:28.168Z,97466.11
2019-05-09T04:50:49.730Z,97468.74
2019-05-09T04:53:11.594Z,97468.74
2019-05-09T04:55:33.325Z,97470.37
2019-05-09T04:57:57.234Z,97474.95
2019-05-09T05:00:18.578Z,97469.78
2019-05-09T05:02:40.993Z,97473.84
2019-05-09T05:05:02.885Z,97478.97
2019-05-09T05:07:24.873Z,97469.50
2019-05-09T05:09:48.379Z,97475.70
2019-05-09T05:12:09.545Z,97479.72
2019-05-09T05:14:31.138Z,97468.64
2019-05-09T05:16:55.294Z,97466.77
2019-05-09T05:19:17.684Z,97474.03
2019-05-09T05:21:39.347Z,97473.20
2019-05-09T05:24:01.323Z,97472.39
2019-05-09T05:26:23.355Z,97468.07
2019-05-09T05:28:47.476Z,97467.00
2019-05-09T05:31:08.610Z,97472.69
2019-05-09T05:33:30.981Z,97467.28
2019-05-09T05:35:52.481Z,97470.27
2019-05-09T05:38:13.575Z,97477.80
2019-05-09T05:40:43.573Z,97477.53
2019-05-09T05:42:58.682Z,97477.28
2019-05-09T05:45:19.918Z,97480.78
2019-05-09T05:47:42.355Z,97474.59
2019-05-09T05:50:04.612Z,97478.13
2019-05-09T05:52:27.752Z,97480.31
2019-05-09T05:54:48.942Z,97476.53
2019-05-09T05:57:10.576Z,97474.91
2019-05-09T05:59:32.485Z,97478.16
2019-05-09T06:01:54.523Z,97481.94
2019-05-09T06:04:18.649Z,97481.14
2019-05-09T06:06:39.834Z,97483.57
2019-05-09T06:09:01.347Z,97483.85
2019-05-09T06:11:22.737Z,97486.58
2019-05-09T06:13:54.431Z,97483.33
2019-05-09T06:16:08.589Z,97483.61
2019-05-09T06:18:30.693Z,97481.14
2019-05-09T06:20:52.061Z,97483.57
2019-05-09T06:23:14.110Z,97476.02
2019-05-09T06:25:38.728Z,97474.39
2019-05-09T06:27:59.336Z,97475.47
2019-05-09T06:30:21.314Z,97472.24
2019-05-09T06:32:42.801Z,97471.69
2019-05-09T06:35:04.943Z,97473.05
2019-05-09T06:37:27.673Z,97477.65
2019-05-09T06:39:49.176Z,97469.81
2019-05-09T06:42:10.852Z,97473.59
2019-05-09T06:44:32.814Z,97478.72
2019-05-09T06:46:54.700Z,97480.08
2019-05-09T06:49:27.575Z,97480.63
2019-05-09T06:51:40.543Z,97481.42
2019-05-09T06:54:02.410Z,97487.66
2019-05-09T06:56:23.898Z,97485.75
2019-05-09T06:58:47.962Z,97473.88
2019-05-09T07:01:09.459Z,97473.32
2019-05-09T07:03:31.516Z,97469.02
2019-05-09T07:05:52.784Z,97469.27
2019-05-09T07:08:14.682Z,97473.32
2019-05-09T07:10:37.749Z,97472.52
2019-05-09T07:12:59.285Z,97472.80
2019-05-09T07:15:21.416Z,97471.17
2019-05-09T07:17:43.119Z,97464.41
2019-05-09T07:20:04.787Z,97477.72
2019-05-09T07:22:28.045Z,97471.79
2019-05-09T07:24:50.411Z,97472.06
2019-05-09T07:27:12.098Z,97472.86
2019-05-09T07:29:33.876Z,97469.63
2019-05-09T07:31:57.307Z,97461.25
2019-05-09T07:34:19.264Z,97466.68
2019-05-09T07:36:40.943Z,97466.92
2019-05-09T07:39:02.655Z,97460.44
2019-05-09T07:41:24.696Z,97465.33
2019-05-09T07:43:47.806Z,97464.25
2019-05-09T07:46:09.986Z,97466.41
2019-05-09T07:48:31.976Z,97468.58
2019-05-09T07:50:54.222Z,97466.67
2019-05-09T07:53:17.587Z,97471.28
2019-05-09T07:55:38.110Z,97470.45
2019-05-09T07:57:59.948Z,97472.36
2019-05-09T08:00:21.497Z,97473.44
2019-05-09T08:02:43.283Z,97472.09
2019-05-09T08:05:05.084Z,97475.86
2019-05-09T08:07:29.101Z,97470.73
2019-05-09T08:09:51.130Z,97467.76
2019-05-09T08:12:12.934Z,97464.78
2019-05-09T08:14:34.739Z,97464.50
2019-05-09T08:16:58.104Z,97461.52
2019-05-09T08:19:19.142Z,97456.67
2019-05-09T08:21:40.682Z,97455.05
2019-05-09T08:24:02.391Z,97455.05
2019-05-09T08:26:24.078Z,97446.11
2019-05-09T08:28:47.977Z,97450.16
2019-05-09T08:31:09.644Z,97447.73
2019-05-09T08:33:31.381Z,97450.44
2019-05-09T08:35:52.854Z,97455.57
2019-05-09T08:38:14.743Z,97454.77
2019-05-09T08:40:38.208Z,97451.23
2019-05-09T08:42:59.241Z,97452.87
2019-05-09T08:45:27.548Z,97449.34
2019-05-09T08:47:43.572Z,97449.89
2019-05-09T08:50:07.842Z,97450.97
2019-05-09T08:52:28.816Z,97450.97
2019-05-09T08:54:51.303Z,97447.19
2019-05-09T08:57:13.024Z,97451.24
2019-05-09T08:59:35.066Z,97447.98
2019-05-09T09:02:12.188Z,97441.78
2019-05-09T09:04:20.663Z,97444.20
2019-05-09T09:06:42.579Z,97448.27
2019-05-09T09:09:04.220Z,97439.08
2019-05-09T09:11:27.881Z,97439.08
2019-05-09T09:13:48.892Z,97436.12
2019-05-09T09:16:18.521Z,97439.90
2019-05-09T09:18:33.909Z,97434.24
2019-05-09T09:20:55.414Z,97434.79
2019-05-09T09:23:18.151Z,97438.56
2019-05-09T09:25:39.586Z,97436.41
2019-05-09T09:28:01.379Z,97435.33
2019-05-09T09:30:25.115Z,97438.58
2019-05-09T09:32:47.898Z,97432.65
2019-05-09T09:35:09.362Z,97434.80
2019-05-09T09:37:45.059Z,97429.94
2019-05-09T09:39:54.425Z,97431.54
2019-05-09T09:42:19.742Z,97438.84
2019-05-09T09:44:39.861Z,97441.28
2019-05-09T09:47:01.571Z,97438.05
2019-05-09T09:49:23.499Z,97438.84
2019-05-09T09:51:45.775Z,97432.37
2019-05-09T09:54:08.816Z,97435.88
2019-05-09T09:56:30.999Z,97430.46
2019-05-09T09:58:52.778Z,97432.37
2019-05-09T10:01:14.340Z,97435.08
2019-05-09T10:03:35.751Z,97435.59
2019-05-09T10:05:57.851Z,97434.52
2019-05-09T10:08:18.952Z,97431.27
2019-05-09T10:10:41.256Z,97433.45
2019-05-09T10:13:04.323Z,97433.18
2019-05-09T10:15:28.102Z,97436.97
2019-05-09T10:17:49.204Z,97435.34
2019-05-09T10:20:10.867Z,97436.41
2019-05-09T10:22:32.460Z,97439.67
2019-05-09T10:24:54.505Z,97433.72
2019-05-09T10:27:18.303Z,97436.41
2019-05-09T10:29:39.218Z,97437.49
2019-05-09T10:32:00.410Z,97433.45
2019-05-09T10:34:22.052Z,97437.75
2019-05-09T10:36:43.934Z,97445.05
2019-05-09T10:39:08.316Z,97447.48
2019-05-09T10:41:29.642Z,97445.06
2019-05-09T10:43:51.172Z,97449.36
2019-05-09T10:46:15.481Z,97447.73
2019-05-09T10:48:38.502Z,97447.21
2019-05-09T10:51:03.873Z,97447.21
2019-05-09T10:53:22.463Z,97446.66
2019-05-09T10:55:44.503Z,97451.52
2019-05-09T10:58:08.125Z,97456.13
2019-05-09T11:00:29.042Z,97453.14
2019-05-09T11:02:50.841Z,97449.37
2019-05-09T11:05:12.545Z,97455.84
2019-05-09T11:07:34.798Z,97452.59
2019-05-09T11:09:58.808Z,97455.56
2019-05-09T11:12:19.699Z,97456.11
2019-05-09T11:14:41.051Z,97450.45
2019-05-09T11:17:10.945Z,97454.27
2019-05-09T11:19:28.642Z,97456.68
2019-05-09T11:21:49.565Z,97456.95
2019-05-09T11:24:10.919Z,97443.19
2019-05-09T11:26:33.019Z,97455.63
2019-05-09T11:28:54.212Z,97458.06
2019-05-09T11:31:18.336Z,97460.77
2019-05-09T11:33:38.720Z,97464.54
2019-05-09T11:36:00.326Z,97460.48
2019-05-09T11:38:32.488Z,97467.80
2019-05-09T11:40:44.996Z,97473.73
2019-05-09T11:43:06.109Z,97475.88
2019-05-09T11:45:28.637Z,97471.55
2019-05-09T11:47:50.290Z,97474.01
2019-05-09T11:50:11.509Z,97482.37
2019-05-09T11:52:33.168Z,97480.73
2019-05-09T11:54:54.534Z,97485.35
2019-05-09T11:57:18.928Z,97482.65
2019-05-09T11:59:39.374Z,97486.70
2019-05-09T12:02:01.179Z,97488.58
2019-05-09T12:04:23.498Z,97482.89
2019-05-09T12:06:44.953Z,97485.87
2019-05-09T12:09:08.649Z,97486.42
2019-05-09T12:11:28.895Z,97488.58
2019-05-09T12:13:51.185Z,97487.50
2019-05-09T12:16:12.596Z,97491.03
2019-05-09T12:18:37.671Z,97492.39
2019-05-09T12:20:58.340Z,97490.76
2019-05-09T12:23:20.118Z,97496.96
2019-05-09T12:25:41.619Z,97494.54
2019-05-09T12:28:03.595Z,97489.13
2019-05-09T12:30:25.343Z,97495.61
2019-05-09T12:32:47.373Z,97494.78
2019-05-09T12:35:09.194Z,97496.13
2019-05-09T12:37:30.771Z,97499.39
2019-05-09T12:39:52.797Z,97499.39
2019-05-09T12:42:14.604Z,97503.72
2019-05-09T12:44:36.419Z,97504.27
2019-05-09T12:46:58.682Z,97506.98
2019-05-09T12:49:20.329Z,97513.45
2019-05-09T12:51:42.150Z,97512.11
2019-05-09T12:54:03.869Z,97512.10
2019-05-09T12:56:28.187Z,97515.36
2019-05-09T12:58:48.617Z,97507.77
2019-05-09T13:01:10.489Z,97512.11
2019-05-09T13:03:32.040Z,97518.06
2019-05-09T13:05:53.996Z,97523.72
2019-05-09T13:08:15.089Z,97525.88
2019-05-09T13:10:37.882Z,97530.48
2019-05-09T13:12:59.999Z,97527.50
2019-05-09T13:15:22.187Z,97536.41
2019-05-09T13:17:43.741Z,97531.00
2019-05-09T13:20:07.807Z,97535.89
2019-05-09T13:22:28.510Z,97529.13
2019-05-09T13:24:50.155Z,97536.16
2019-05-09T13:27:11.705Z,97535.89
2019-05-09T13:29:34.055Z,97539.70
2019-05-09T13:31:57.717Z,97543.23
2019-05-09T13:34:19.203Z,97543.22
2019-05-09T13:36:40.711Z,97550.53
2019-05-09T13:39:05.006Z,97543.52
2019-05-09T13:41:26.772Z,97549.75
2019-05-09T13:43:57.597Z,97550.03
2019-05-09T13:46:10.718Z,97553.81
2019-05-09T13:48:57.169Z,97549.75
2019-05-09T13:50:57.695Z,97555.16
2019-05-09T13:53:19.241Z,97563.00
2019-05-09T13:55:41.409Z,97567.61
2019-05-09T13:58:03.276Z,97569.48
2019-05-09T14:00:24.547Z,97576.25
2019-05-09T14:02:48.958Z,97573.00
2019-05-09T14:05:09.544Z,97576.25
2019-05-09T14:07:30.914Z,97577.05
2019-05-09T14:09:52.865Z,97577.33
2019-05-09T14:12:14.697Z,97577.05
2019-05-09T14:14:37.968Z,97583.81
2019-05-09T14:16:59.494Z,97586.80
2019-05-09T14:19:39.901Z,97591.38
2019-05-09T14:21:44.822Z,97587.88
2019-05-09T14:24:14.993Z,97595.43
2019-05-09T14:26:29.509Z,97602.71
2019-05-09T14:28:51.340Z,97601.36
2019-05-09T14:31:12.987Z,97611.38
2019-05-09T14:33:34.971Z,97609.47
2019-05-09T14:35:56.590Z,97615.40
2019-05-09T14:38:18.611Z,97623.27
2019-05-09T14:40:40.425Z,97617.03
2019-05-09T14:43:02.313Z,97621.08
2019-05-09T14:45:23.922Z,97625.41
2019-05-09T14:47:45.761Z,97625.66
2019-05-09T14:50:09.948Z,97624.06
2019-05-09T14:52:32.282Z,97631.34
2019-05-09T14:54:54.494Z,97630.55
2019-05-09T14:57:17.517Z,97638.37
2019-05-09T14:59:40.009Z,97640.80
2019-05-09T15:02:01.066Z,97642.67
2019-05-09T15:04:22.867Z,97640.52
2019-05-09T15:06:44.780Z,97647.55
2019-05-09T15:09:08.282Z,97655.95
2019-05-09T15:11:30.588Z,97653.76
2019-05-09T15:13:52.330Z,97651.61
2019-05-09T15:16:14.325Z,97659.73
2019-05-09T15:18:35.544Z,97662.42
2019-05-09T15:20:58.141Z,97663.52
2019-05-09T15:23:19.870Z,97665.97
2019-05-09T15:25:41.505Z,97658.66
2019-05-09T15:28:03.128Z,97656.80
2019-05-09T15:30:24.342Z,97653.02
2019-05-09T15:32:47.443Z,97648.95
2019-05-09T15:35:09.858Z,97648.41
2019-05-09T15:37:31.514Z,97647.33
2019-05-09T15:39:53.559Z,97648.95
2019-05-09T15:42:14.840Z,97654.92
2019-05-09T15:44:36.558Z,97659.26
2019-05-09T15:46:58.628Z,97654.13
2019-05-09T15:49:19.838Z,97656.88
2019-05-09T15:51:41.675Z,97662.84
2019-05-09T15:54:05.150Z,97659.58
2019-05-09T15:56:28.801Z,97664.75
2019-05-09T15:58:50.083Z,97666.10
2019-05-09T16:01:11.926Z,97675.30
2019-05-09T16:03:33.588Z,97669.36
2019-05-09T16:05:55.463Z,97681.81
2019-05-09T16:08:18.703Z,97682.33
2019-05-09T16:10:40.967Z,97686.11
2019-05-09T16:13:03.555Z,97686.39
2019-05-09T16:15:24.891Z,97681.53
2019-05-09T16:17:48.501Z,97677.20
2019-05-09T16:20:10.533Z,97679.34
2019-05-09T16:22:32.185Z,97682.25
2019-05-09T16:24:54.224Z,97680.09
2019-05-09T16:27:16.408Z,97685.46
2019-05-09T16:29:38.255Z,97687.32
2019-05-09T16:32:00.338Z,97689.98
2019-05-09T16:34:22.083Z,97691.31
2019-05-09T16:36:43.648Z,97684.52
2019-05-09T16:39:06.899Z,97686.66
2019-05-09T16:41:28.254Z,97690.19
2019-05-09T16:43:49.713Z,97699.08
2019-05-09T16:46:11.716Z,97694.19
2019-05-09T16:48:32.902Z,97703.94
2019-05-09T16:51:04.383Z,97702.64
2019-05-09T16:53:18.566Z,97701.30
2019-05-09T16:55:39.897Z,97708.34
2019-05-09T16:58:01.390Z,97709.17
2019-05-09T17:00:22.736Z,97711.32
2019-05-09T17:02:44.209Z,97715.37
2019-05-09T17:05:08.343Z,97721.33
2019-05-09T17:07:29.423Z,97721.58
2019-05-09T17:09:51.086Z,97724.83
2019-05-09T17:12:13.176Z,97725.62
2019-05-09T17:14:35.201Z,97731.31
2019-05-09T17:16:59.621Z,97727.26
2019-05-09T17:19:19.693Z,97728.09
2019-05-09T17:21:41.365Z,97729.69
2019-05-09T17:24:03.227Z,97732.11
2019-05-09T17:26:24.966Z,97736.16
2019-05-09T17:28:48.486Z,97731.59
2019-05-09T17:31:09.306Z,97738.08
2019-05-09T17:33:30.711Z,97736.22
2019-05-09T17:35:52.937Z,97742.19
2019-05-09T17:38:14.058Z,97743.55
2019-05-09T17:40:38.311Z,97742.20
2019-05-09T17:42:59.223Z,97750.07
2019-05-09T17:45:20.370Z,97750.07
2019-05-09T17:47:41.623Z,97749.23
2019-05-09T17:50:03.094Z,97755.20
2019-05-09T17:52:24.900Z,97754.13
2019-05-09T17:54:48.586Z,97749.23
2019-05-09T17:57:10.745Z,97748.16
2019-05-09T17:59:32.643Z,97755.72
2019-05-09T18:01:54.236Z,97760.05
2019-05-09T18:04:17.873Z,97754.92
2019-05-09T18:06:38.486Z,97767.88
2019-05-09T18:08:59.801Z,97771.66
2019-05-09T18:11:21.494Z,97778.70
2019-05-09T18:13:42.460Z,97781.13
2019-05-09T18:16:03.890Z,97793.84
2019-05-09T18:18:28.174Z,97788.98
2019-05-09T18:20:48.051Z,97785.17
2019-05-09T18:23:09.691Z,97791.94
2019-05-09T18:25:31.668Z,97791.36
2019-05-09T18:27:52.853Z,97798.39
2019-05-09T18:30:14.802Z,97789.20
2019-05-09T18:32:38.333Z,97800.82
2019-05-09T18:35:00.409Z,97801.66
2019-05-09T18:37:21.684Z,97798.95
2019-05-09T18:39:43.888Z,97794.89
2019-05-09T18:42:08.492Z,97798.13
2019-05-09T18:44:29.015Z,97811.64
2019-05-09T18:46:50.957Z,97823.28
2019-05-09T18:49:12.640Z,97855.73
2019-05-09T18:51:34.628Z,97865.71
2019-05-09T18:53:56.119Z,97878.98
2019-05-09T18:56:18.268Z,97886.55
2019-05-09T18:58:40.101Z,97887.10
2019-05-09T19:01:01.706Z,97893.58
2019-05-09T19:03:23.305Z,97899.27
2019-05-09T19:05:44.933Z,97902.20
2019-05-09T19:08:06.352Z,97905.98
2019-05-09T19:10:27.699Z,97911.39
2019-05-09T19:12:49.250Z,97918.15
2019-05-09T19:15:10.879Z,97920.03
2019-05-09T19:17:33.265Z,97923.82
2019-05-09T19:19:55.117Z,97933.27
2019-05-09T19:22:22.453Z,97931.63
2019-05-09T19:24:40.267Z,97931.35
2019-05-09T19:27:02.047Z,97934.86
2019-05-09T19:29:24.354Z,97939.75
2019-05-09T19:31:46.412Z,97947.07
2019-05-09T19:34:07.798Z,97941.90
2019-05-09T19:36:29.805Z,97947.07
2019-05-09T19:38:51.375Z,97948.94
2019-05-09T19:41:12.818Z,97943.83
2019-05-09T19:43:34.993Z,97949.53
2019-05-09T19:45:57.053Z,97947.69
2019-05-09T19:48:18.955Z,97954.17
2019-05-09T19:50:40.184Z,97950.16
2019-05-09T19:53:02.172Z,97952.05
2019-05-09T19:55:24.086Z,97952.34
2019-05-09T19:57:46.056Z,97964.79
2019-05-09T20:00:07.824Z,97955.59
2019-05-09T20:02:29.445Z,97963.42
2019-05-09T20:04:54.129Z,97971.81
2019-05-09T20:07:16.445Z,97974.52
2019-05-09T20:09:38.235Z,97979.14
2019-05-09T20:12:00.439Z,97978.86
2019-05-09T20:14:22.847Z,97990.24
2019-05-09T20:16:44.052Z,97989.42
2019-05-09T20:19:06.238Z,97990.78
2019-05-09T20:21:27.485Z,97994.31
2019-05-09T20:23:49.622Z,97999.80
2019-05-09T20:26:13.782Z,98003.86
2019-05-09T20:28:36.033Z,98003.31
2019-05-09T20:30:57.971Z,98010.88
2019-05-09T20:33:19.576Z,98010.63
2019-05-09T20:35:41.113Z,98010.08
2019-05-09T20:38:03.875Z,98011.43
2019-05-09T20:40:25.349Z,98015.77
2019-05-09T20:42:46.883Z,98019.83
2019-05-09T20:45:08.534Z,98021.98
2019-05-09T20:47:30.419Z,98031.45
2019-05-09T20:49:52.349Z,98026.87
2019-05-09T20:52:15.957Z,98037.14
2019-05-09T20:54:37.768Z,98032.52
2019-05-09T20:56:59.824Z,98041.73
2019-05-09T20:59:21.260Z,98044.67
2019-05-09T21:01:42.759Z,98050.34
2019-05-09T21:04:05.095Z,98050.61
2019-05-09T21:06:26.113Z,98052.20
2019-05-09T21:08:47.870Z,98063.02
2019-05-09T21:11:08.975Z,98058.39
2019-05-09T21:13:30.580Z,98058.66
2019-05-09T21:15:52.451Z,98059.72
2019-05-09T21:18:14.332Z,98064.56
2019-05-09T21:20:35.830Z,98070.23
2019-05-09T21:22:57.954Z,98064.55
2019-05-09T21:25:19.414Z,98077.78
2019-05-09T21:27:40.816Z,98078.05
2019-05-09T21:30:02.272Z,98086.67
2019-05-09T21:32:24.224Z,98084.78
2019-05-09T21:34:46.706Z,98083.66
2019-05-09T21:37:08.271Z,98086.91
2019-05-09T21:39:30.352Z,98087.98
2019-05-09T21:41:52.701Z,98091.23
2019-05-09T21:44:13.962Z,98095.30
2019-05-09T21:46:35.376Z,98099.60
2019-05-09T21:48:57.269Z,98105.84
2019-05-09T21:51:18.875Z,98107.48
2019-05-09T21:53:41.442Z,98109.41
2019-05-09T21:56:03.321Z,98105.66
2019-05-09T21:58:25.476Z,98104.84
2019-05-09T22:00:49.828Z,98108.41
2019-05-09T22:03:11.155Z,98110.87
2019-05-09T22:05:32.939Z,98112.48
2019-05-09T22:07:54.500Z,98113.83
2019-05-09T22:10:16.055Z,98112.48
2019-05-09T22:12:37.831Z,98122.52
2019-05-09T22:14:59.375Z,98115.76
2019-05-09T22:17:21.100Z,98123.06
2019-05-09T22:19:43.061Z,98124.70
2019-05-09T22:22:04.974Z,98120.65
2019-05-09T22:24:27.082Z,98121.72
2019-05-09T22:26:48.207Z,98118.72
2019-05-09T22:29:10.122Z,98123.30
2019-05-09T22:31:31.765Z,98130.34
2019-05-09T22:33:53.814Z,98126.00
2019-05-09T22:36:15.497Z,98131.70
2019-05-09T22:38:37.022Z,98133.31
2019-05-09T22:40:58.441Z,98139.02
2019-05-09T22:43:20.304Z,98142.78
2019-05-09T22:45:41.509Z,98141.69
2019-05-09T22:48:03.349Z,98146.55
2019-05-09T22:50:24.817Z,98140.86
2019-05-09T22:52:46.963Z,98145.17
2019-05-09T22:55:08.823Z,98146.76
2019-05-09T22:57:30.817Z,98151.65
2019-05-09T22:59:52.181Z,98150.02
2019-05-09T23:02:13.577Z,98149.73
2019-05-09T23:04:34.879Z,98152.70
2019-05-09T23:06:56.230Z,98151.05
2019-05-09T23:09:18.208Z,98146.71
2019-05-09T23:11:39.575Z,98143.44
2019-05-09T23:14:01.354Z,98152.09
2019-05-09T23:16:23.078Z,98153.16
2019-05-09T23:18:45.012Z,98152.88
2019-05-09T23:21:06.811Z,98158.00
2019-05-09T23:23:28.761Z,98153.66
2019-05-09T23:25:50.762Z,98159.33
2019-05-09T23:28:12.408Z,98160.94
2019-05-09T23:30:34.106Z,98162.52
2019-05-09T23:32:55.883Z,98163.58
2019-05-09T23:35:17.172Z,98166.00
2019-05-09T23:37:39.074Z,98166.84
2019-05-09T23:40:00.505Z,98170.03
2019-05-09T23:42:22.399Z,98170.30
2019-05-09T23:44:44.369Z,98168.66
2019-05-09T23:47:05.694Z,98174.58
2019-05-09T23:49:27.698Z,98179.73
2019-05-09T23:51:49.859Z,98174.55
2019-05-09T23:54:11.585Z,98166.98
2019-05-09T23:56:34.101Z,98173.75
2019-05-09T23:58:55.810Z,98173.20
